sensor_id;sensor_type;location;lat;lon;timestamp;temperature;humidity
54898;DHT22;40800;52.704;6.398;2022-08-16T00:00:49;19.80;99.90
54898;DHT22;40800;52.704;6.398;2022-08-16T00:03:15;19.80;99.90
54898;DHT22;40800;52.704;6.398;2022-08-16T00:05:41;19.80;99.90
54898;DHT22;40800;52.704;6.398;2022-08-16T00:08:07;19.80;99.90
54898;DHT22;40800;52.704;6.398;2022-08-16T00:10:32;19.80;99.90
54898;DHT22;40800;52.704;6.398;2022-08-16T00:12:59;19.80;99.90
54898;DHT22;40800;52.704;6.398;2022-08-16T00:15:26;19.80;99.90
54898;DHT22;40800;52.704;6.398;2022-08-16T00:17:52;19.80;99.90
54898;DHT22;40800;52.704;6.398;2022-08-16T00:20:18;19.80;99.90
54898;DHT22;40800;52.704;6.398;2022-08-16T00:22:43;19.80;99.90
54898;DHT22;40800;52.704;6.398;2022-08-16T00:25:11;19.80;99.90
54898;DHT22;40800;52.704;6.398;2022-08-16T00:27:37;19.90;99.90
54898;DHT22;40800;52.704;6.398;2022-08-16T00:30:04;19.80;99.90
54898;DHT22;40800;52.704;6.398;2022-08-16T00:32:30;19.90;99.90
54898;DHT22;40800;52.704;6.398;2022-08-16T00:34:55;20.00;99.90
54898;DHT22;40800;52.704;6.398;2022-08-16T00:37:22;20.10;99.90
54898;DHT22;40800;52.704;6.398;2022-08-16T00:39:47;20.30;99.90
54898;DHT22;40800;52.704;6.398;2022-08-16T00:42:13;20.40;99.90
54898;DHT22;40800;52.704;6.398;2022-08-16T00:44:39;20.50;99.90
54898;DHT22;40800;52.704;6.398;2022-08-16T00:47:07;20.50;99.90
54898;DHT22;40800;52.704;6.398;2022-08-16T00:49:34;20.50;99.90
54898;DHT22;40800;52.704;6.398;2022-08-16T00:52:00;20.50;99.90
54898;DHT22;40800;52.704;6.398;2022-08-16T00:54:27;20.50;99.90
54898;DHT22;40800;52.704;6.398;2022-08-16T00:56:53;20.30;99.90
54898;DHT22;40800;52.704;6.398;2022-08-16T00:59:20;20.30;99.90
54898;DHT22;40800;52.704;6.398;2022-08-16T01:01:46;20.20;99.90
54898;DHT22;40800;52.704;6.398;2022-08-16T01:04:13;20.20;99.90
54898;DHT22;40800;52.704;6.398;2022-08-16T01:06:40;20.20;99.90
54898;DHT22;40800;52.704;6.398;2022-08-16T01:09:06;20.20;99.90
54898;DHT22;40800;52.704;6.398;2022-08-16T01:11:33;20.20;99.90
54898;DHT22;40800;52.704;6.398;2022-08-16T01:14:10;20.20;99.90
54898;DHT22;40800;52.704;6.398;2022-08-16T01:16:37;20.40;99.90
54898;DHT22;40800;52.704;6.398;2022-08-16T01:19:06;20.10;99.90
54898;DHT22;40800;52.704;6.398;2022-08-16T01:21:36;20.10;99.90
54898;DHT22;40800;52.704;6.398;2022-08-16T01:26:28;20.00;99.90
54898;DHT22;40800;52.704;6.398;2022-08-16T01:28:58;20.00;99.90
54898;DHT22;40800;52.704;6.398;2022-08-16T01:31:24;20.00;99.90
54898;DHT22;40800;52.704;6.398;2022-08-16T01:33:50;20.10;99.90
54898;DHT22;40800;52.704;6.398;2022-08-16T01:36:16;20.20;99.90
54898;DHT22;40800;52.704;6.398;2022-08-16T01:38:42;20.30;99.90
54898;DHT22;40800;52.704;6.398;2022-08-16T01:41:09;20.30;99.90
54898;DHT22;40800;52.704;6.398;2022-08-16T01:43:36;20.20;99.90
54898;DHT22;40800;52.704;6.398;2022-08-16T01:46:04;20.20;99.90
54898;DHT22;40800;52.704;6.398;2022-08-16T01:48:30;20.10;99.90
54898;DHT22;40800;52.704;6.398;2022-08-16T01:50:57;20.00;99.90
54898;DHT22;40800;52.704;6.398;2022-08-16T01:53:23;19.90;99.90
54898;DHT22;40800;52.704;6.398;2022-08-16T01:55:48;19.70;99.90
54898;DHT22;40800;52.704;6.398;2022-08-16T01:58:15;19.60;99.90
54898;DHT22;40800;52.704;6.398;2022-08-16T02:00:41;19.50;99.90
54898;DHT22;40800;52.704;6.398;2022-08-16T02:03:07;19.50;99.90
54898;DHT22;40800;52.704;6.398;2022-08-16T02:05:33;19.40;99.90
54898;DHT22;40800;52.704;6.398;2022-08-16T02:07:59;19.50;99.90
54898;DHT22;40800;52.704;6.398;2022-08-16T02:10:24;19.50;99.90
54898;DHT22;40800;52.704;6.398;2022-08-16T02:12:50;19.40;99.90
54898;DHT22;40800;52.704;6.398;2022-08-16T02:15:16;19.40;99.90
54898;DHT22;40800;52.704;6.398;2022-08-16T02:17:42;19.40;99.90
54898;DHT22;40800;52.704;6.398;2022-08-16T02:20:08;19.50;99.90
54898;DHT22;40800;52.704;6.398;2022-08-16T02:22:34;19.40;99.90
54898;DHT22;40800;52.704;6.398;2022-08-16T02:25:00;19.30;99.90
54898;DHT22;40800;52.704;6.398;2022-08-16T02:27:26;19.30;99.90
54898;DHT22;40800;52.704;6.398;2022-08-16T02:29:52;19.30;99.90
54898;DHT22;40800;52.704;6.398;2022-08-16T02:32:17;19.30;99.90
54898;DHT22;40800;52.704;6.398;2022-08-16T02:34:43;19.30;99.90
54898;DHT22;40800;52.704;6.398;2022-08-16T02:37:09;19.30;99.90
54898;DHT22;40800;52.704;6.398;2022-08-16T02:39:35;19.30;99.90
54898;DHT22;40800;52.704;6.398;2022-08-16T02:42:00;19.30;99.90
54898;DHT22;40800;52.704;6.398;2022-08-16T02:44:26;19.30;99.90
54898;DHT22;40800;52.704;6.398;2022-08-16T02:46:52;19.30;99.90
54898;DHT22;40800;52.704;6.398;2022-08-16T02:49:17;19.30;99.90
54898;DHT22;40800;52.704;6.398;2022-08-16T02:51:43;19.30;99.90
54898;DHT22;40800;52.704;6.398;2022-08-16T02:54:09;19.20;99.90
54898;DHT22;40800;52.704;6.398;2022-08-16T02:56:35;19.40;99.90
54898;DHT22;40800;52.704;6.398;2022-08-16T02:59:00;18.80;99.90
54898;DHT22;40800;52.704;6.398;2022-08-16T03:01:27;18.80;99.90
54898;DHT22;40800;52.704;6.398;2022-08-16T03:03:53;18.40;99.90
54898;DHT22;40800;52.704;6.398;2022-08-16T03:06:20;18.10;99.90
54898;DHT22;40800;52.704;6.398;2022-08-16T03:08:46;18.10;99.90
54898;DHT22;40800;52.704;6.398;2022-08-16T03:11:12;17.90;99.90
54898;DHT22;40800;52.704;6.398;2022-08-16T03:13:38;17.80;99.90
54898;DHT22;40800;52.704;6.398;2022-08-16T03:16:04;17.80;99.90
54898;DHT22;40800;52.704;6.398;2022-08-16T03:18:29;17.90;99.90
54898;DHT22;40800;52.704;6.398;2022-08-16T03:20:55;18.00;99.90
54898;DHT22;40800;52.704;6.398;2022-08-16T03:23:21;18.10;99.90
54898;DHT22;40800;52.704;6.398;2022-08-16T03:25:47;18.10;99.90
54898;DHT22;40800;52.704;6.398;2022-08-16T03:28:12;18.10;99.90
54898;DHT22;40800;52.704;6.398;2022-08-16T03:30:38;18.20;99.90
54898;DHT22;40800;52.704;6.398;2022-08-16T03:33:05;18.50;99.90
54898;DHT22;40800;52.704;6.398;2022-08-16T03:35:32;18.20;99.90
54898;DHT22;40800;52.704;6.398;2022-08-16T03:37:58;18.20;99.90
54898;DHT22;40800;52.704;6.398;2022-08-16T03:40:25;18.30;99.90
54898;DHT22;40800;52.704;6.398;2022-08-16T03:42:50;18.20;99.90
54898;DHT22;40800;52.704;6.398;2022-08-16T03:45:16;18.30;99.90
54898;DHT22;40800;52.704;6.398;2022-08-16T03:47:42;18.30;99.90
54898;DHT22;40800;52.704;6.398;2022-08-16T03:50:09;18.70;99.90
54898;DHT22;40800;52.704;6.398;2022-08-16T03:52:35;18.30;99.90
54898;DHT22;40800;52.704;6.398;2022-08-16T03:55:01;18.30;99.90
54898;DHT22;40800;52.704;6.398;2022-08-16T03:57:27;18.30;99.90
54898;DHT22;40800;52.704;6.398;2022-08-16T03:59:53;18.30;99.90
54898;DHT22;40800;52.704;6.398;2022-08-16T04:02:19;18.20;99.90
54898;DHT22;40800;52.704;6.398;2022-08-16T04:04:45;18.20;99.90
54898;DHT22;40800;52.704;6.398;2022-08-16T04:07:11;18.20;99.90
54898;DHT22;40800;52.704;6.398;2022-08-16T04:09:36;18.10;99.90
54898;DHT22;40800;52.704;6.398;2022-08-16T04:12:03;18.10;99.90
54898;DHT22;40800;52.704;6.398;2022-08-16T04:14:29;18.10;99.90
54898;DHT22;40800;52.704;6.398;2022-08-16T04:16:54;17.80;99.90
54898;DHT22;40800;52.704;6.398;2022-08-16T04:19:20;17.60;99.90
54898;DHT22;40800;52.704;6.398;2022-08-16T04:21:49;17.70;99.90
54898;DHT22;40800;52.704;6.398;2022-08-16T04:24:14;17.80;99.90
54898;DHT22;40800;52.704;6.398;2022-08-16T04:26:40;18.00;99.90
54898;DHT22;40800;52.704;6.398;2022-08-16T04:29:05;18.30;99.90
54898;DHT22;40800;52.704;6.398;2022-08-16T04:31:31;17.60;99.90
54898;DHT22;40800;52.704;6.398;2022-08-16T04:33:56;17.50;99.90
54898;DHT22;40800;52.704;6.398;2022-08-16T04:36:24;17.40;99.90
54898;DHT22;40800;52.704;6.398;2022-08-16T04:38:50;17.30;99.90
54898;DHT22;40800;52.704;6.398;2022-08-16T04:41:16;17.30;99.90
54898;DHT22;40800;52.704;6.398;2022-08-16T04:43:41;17.30;99.90
54898;DHT22;40800;52.704;6.398;2022-08-16T04:46:08;17.30;99.90
54898;DHT22;40800;52.704;6.398;2022-08-16T04:48:33;17.40;99.90
54898;DHT22;40800;52.704;6.398;2022-08-16T04:50:59;17.50;99.90
54898;DHT22;40800;52.704;6.398;2022-08-16T04:53:24;17.60;99.90
54898;DHT22;40800;52.704;6.398;2022-08-16T04:55:50;17.70;99.90
54898;DHT22;40800;52.704;6.398;2022-08-16T04:58:15;18.30;99.90
54898;DHT22;40800;52.704;6.398;2022-08-16T05:00:41;17.70;99.90
54898;DHT22;40800;52.704;6.398;2022-08-16T05:03:07;17.70;99.90
54898;DHT22;40800;52.704;6.398;2022-08-16T05:05:34;17.80;99.90
54898;DHT22;40800;52.704;6.398;2022-08-16T05:08:00;17.80;99.90
54898;DHT22;40800;52.704;6.398;2022-08-16T05:10:26;17.80;99.90
54898;DHT22;40800;52.704;6.398;2022-08-16T05:12:52;17.70;99.90
54898;DHT22;40800;52.704;6.398;2022-08-16T05:15:17;17.70;99.90
54898;DHT22;40800;52.704;6.398;2022-08-16T05:17:43;17.60;99.90
54898;DHT22;40800;52.704;6.398;2022-08-16T05:20:09;17.70;99.90
54898;DHT22;40800;52.704;6.398;2022-08-16T05:22:35;17.60;99.90
54898;DHT22;40800;52.704;6.398;2022-08-16T05:25:03;17.70;99.90
54898;DHT22;40800;52.704;6.398;2022-08-16T05:27:29;17.70;99.90
54898;DHT22;40800;52.704;6.398;2022-08-16T05:29:54;17.70;99.90
54898;DHT22;40800;52.704;6.398;2022-08-16T05:32:20;17.80;99.90
54898;DHT22;40800;52.704;6.398;2022-08-16T05:34:46;17.80;99.90
54898;DHT22;40800;52.704;6.398;2022-08-16T05:37:11;17.90;99.90
54898;DHT22;40800;52.704;6.398;2022-08-16T05:39:37;17.90;99.90
54898;DHT22;40800;52.704;6.398;2022-08-16T05:42:02;17.80;99.90
54898;DHT22;40800;52.704;6.398;2022-08-16T05:44:28;17.90;99.90
54898;DHT22;40800;52.704;6.398;2022-08-16T05:46:54;17.90;99.90
54898;DHT22;40800;52.704;6.398;2022-08-16T05:49:20;18.00;99.90
54898;DHT22;40800;52.704;6.398;2022-08-16T05:51:45;18.00;99.90
54898;DHT22;40800;52.704;6.398;2022-08-16T05:54:13;18.10;99.90
54898;DHT22;40800;52.704;6.398;2022-08-16T05:56:39;18.00;99.90
54898;DHT22;40800;52.704;6.398;2022-08-16T05:59:05;18.10;99.90
54898;DHT22;40800;52.704;6.398;2022-08-16T06:01:31;18.00;99.90
54898;DHT22;40800;52.704;6.398;2022-08-16T06:03:56;18.10;99.90
54898;DHT22;40800;52.704;6.398;2022-08-16T06:06:22;18.00;99.90
54898;DHT22;40800;52.704;6.398;2022-08-16T06:08:47;18.50;99.90
54898;DHT22;40800;52.704;6.398;2022-08-16T06:11:13;18.10;99.90
54898;DHT22;40800;52.704;6.398;2022-08-16T06:13:38;18.20;99.90
54898;DHT22;40800;52.704;6.398;2022-08-16T06:16:04;18.20;99.90
54898;DHT22;40800;52.704;6.398;2022-08-16T06:18:30;18.20;99.90
54898;DHT22;40800;52.704;6.398;2022-08-16T06:20:55;18.20;99.90
54898;DHT22;40800;52.704;6.398;2022-08-16T06:23:21;18.20;99.90
54898;DHT22;40800;52.704;6.398;2022-08-16T06:25:47;18.40;99.90
54898;DHT22;40800;52.704;6.398;2022-08-16T06:28:13;18.50;99.90
54898;DHT22;40800;52.704;6.398;2022-08-16T06:30:39;18.60;99.90
54898;DHT22;40800;52.704;6.398;2022-08-16T06:33:04;18.80;99.90
54898;DHT22;40800;52.704;6.398;2022-08-16T06:35:30;18.90;99.90
54898;DHT22;40800;52.704;6.398;2022-08-16T06:37:56;19.00;99.90
54898;DHT22;40800;52.704;6.398;2022-08-16T06:40:21;19.10;99.90
54898;DHT22;40800;52.704;6.398;2022-08-16T06:42:49;19.20;99.90
54898;DHT22;40800;52.704;6.398;2022-08-16T06:45:16;19.20;99.90
54898;DHT22;40800;52.704;6.398;2022-08-16T06:47:42;19.30;99.90
54898;DHT22;40800;52.704;6.398;2022-08-16T06:50:08;19.50;99.90
54898;DHT22;40800;52.704;6.398;2022-08-16T06:52:34;19.50;99.90
54898;DHT22;40800;52.704;6.398;2022-08-16T06:55:00;19.70;99.90
54898;DHT22;40800;52.704;6.398;2022-08-16T06:57:26;19.60;99.90
54898;DHT22;40800;52.704;6.398;2022-08-16T06:59:51;19.90;99.90
54898;DHT22;40800;52.704;6.398;2022-08-16T07:02:17;19.90;99.90
54898;DHT22;40800;52.704;6.398;2022-08-16T07:04:44;20.00;99.90
54898;DHT22;40800;52.704;6.398;2022-08-16T07:07:09;20.20;99.90
54898;DHT22;40800;52.704;6.398;2022-08-16T07:09:35;20.30;99.90
54898;DHT22;40800;52.704;6.398;2022-08-16T07:12:00;20.30;99.90
54898;DHT22;40800;52.704;6.398;2022-08-16T07:14:26;20.50;99.90
54898;DHT22;40800;52.704;6.398;2022-08-16T07:16:52;20.50;99.90
54898;DHT22;40800;52.704;6.398;2022-08-16T07:19:17;20.60;99.90
54898;DHT22;40800;52.704;6.398;2022-08-16T07:21:43;20.80;99.90
54898;DHT22;40800;52.704;6.398;2022-08-16T07:24:09;20.80;99.90
54898;DHT22;40800;52.704;6.398;2022-08-16T07:26:34;21.20;99.90
54898;DHT22;40800;52.704;6.398;2022-08-16T07:29:00;21.20;99.90
54898;DHT22;40800;52.704;6.398;2022-08-16T07:31:25;21.20;99.90
54898;DHT22;40800;52.704;6.398;2022-08-16T07:33:51;21.30;99.90
54898;DHT22;40800;52.704;6.398;2022-08-16T07:36:17;21.30;99.90
54898;DHT22;40800;52.704;6.398;2022-08-16T07:38:43;21.30;99.90
54898;DHT22;40800;52.704;6.398;2022-08-16T07:41:08;21.50;99.90
54898;DHT22;40800;52.704;6.398;2022-08-16T07:43:34;21.70;99.90
54898;DHT22;40800;52.704;6.398;2022-08-16T07:46:00;21.80;99.90
54898;DHT22;40800;52.704;6.398;2022-08-16T07:48:25;22.00;99.90
54898;DHT22;40800;52.704;6.398;2022-08-16T07:50:51;22.00;99.90
54898;DHT22;40800;52.704;6.398;2022-08-16T07:53:17;22.00;99.90
54898;DHT22;40800;52.704;6.398;2022-08-16T07:55:43;22.00;99.90
54898;DHT22;40800;52.704;6.398;2022-08-16T07:58:08;22.10;99.90
54898;DHT22;40800;52.704;6.398;2022-08-16T08:00:34;22.20;99.90
54898;DHT22;40800;52.704;6.398;2022-08-16T08:03:00;22.30;99.90
54898;DHT22;40800;52.704;6.398;2022-08-16T08:05:26;22.30;99.90
54898;DHT22;40800;52.704;6.398;2022-08-16T08:07:52;22.30;99.90
54898;DHT22;40800;52.704;6.398;2022-08-16T08:10:18;22.30;99.90
54898;DHT22;40800;52.704;6.398;2022-08-16T08:12:45;22.30;99.90
54898;DHT22;40800;52.704;6.398;2022-08-16T08:15:11;22.40;99.90
54898;DHT22;40800;52.704;6.398;2022-08-16T08:17:37;22.70;99.90
54898;DHT22;40800;52.704;6.398;2022-08-16T08:20:04;22.60;99.90
54898;DHT22;40800;52.704;6.398;2022-08-16T08:22:31;22.90;99.90
54898;DHT22;40800;52.704;6.398;2022-08-16T08:24:57;22.90;99.90
54898;DHT22;40800;52.704;6.398;2022-08-16T08:27:22;23.00;99.90
54898;DHT22;40800;52.704;6.398;2022-08-16T08:29:48;23.30;99.90
54898;DHT22;40800;52.704;6.398;2022-08-16T08:32:14;23.30;99.90
54898;DHT22;40800;52.704;6.398;2022-08-16T08:34:39;23.40;99.90
54898;DHT22;40800;52.704;6.398;2022-08-16T08:37:06;23.30;99.90
54898;DHT22;40800;52.704;6.398;2022-08-16T08:39:32;23.80;99.90
54898;DHT22;40800;52.704;6.398;2022-08-16T08:41:59;23.70;99.90
54898;DHT22;40800;52.704;6.398;2022-08-16T08:44:26;23.70;99.90
54898;DHT22;40800;52.704;6.398;2022-08-16T08:46:52;23.70;99.90
54898;DHT22;40800;52.704;6.398;2022-08-16T08:49:21;23.90;99.90
54898;DHT22;40800;52.704;6.398;2022-08-16T08:51:47;23.80;99.90
54898;DHT22;40800;52.704;6.398;2022-08-16T08:54:12;24.00;99.90
54898;DHT22;40800;52.704;6.398;2022-08-16T08:56:38;24.00;99.90
54898;DHT22;40800;52.704;6.398;2022-08-16T08:59:06;24.20;99.90
54898;DHT22;40800;52.704;6.398;2022-08-16T09:01:32;24.40;99.90
54898;DHT22;40800;52.704;6.398;2022-08-16T09:03:58;24.40;99.90
54898;DHT22;40800;52.704;6.398;2022-08-16T09:06:24;24.60;99.90
54898;DHT22;40800;52.704;6.398;2022-08-16T09:08:50;24.40;99.90
54898;DHT22;40800;52.704;6.398;2022-08-16T09:11:15;24.20;99.90
54898;DHT22;40800;52.704;6.398;2022-08-16T09:13:41;24.20;99.90
54898;DHT22;40800;52.704;6.398;2022-08-16T09:16:08;24.60;99.90
54898;DHT22;40800;52.704;6.398;2022-08-16T09:18:34;25.00;99.90
54898;DHT22;40800;52.704;6.398;2022-08-16T09:20:59;25.20;99.90
54898;DHT22;40800;52.704;6.398;2022-08-16T09:23:25;25.20;99.90
54898;DHT22;40800;52.704;6.398;2022-08-16T09:25:51;25.10;99.90
54898;DHT22;40800;52.704;6.398;2022-08-16T09:28:17;24.80;99.90
54898;DHT22;40800;52.704;6.398;2022-08-16T09:30:42;24.90;99.90
54898;DHT22;40800;52.704;6.398;2022-08-16T09:33:08;24.70;99.90
54898;DHT22;40800;52.704;6.398;2022-08-16T09:35:35;24.90;99.90
54898;DHT22;40800;52.704;6.398;2022-08-16T09:38:02;25.00;99.90
54898;DHT22;40800;52.704;6.398;2022-08-16T09:40:27;25.40;99.90
54898;DHT22;40800;52.704;6.398;2022-08-16T09:42:53;25.30;99.90
54898;DHT22;40800;52.704;6.398;2022-08-16T09:45:19;25.60;99.90
54898;DHT22;40800;52.704;6.398;2022-08-16T09:47:45;25.40;99.90
54898;DHT22;40800;52.704;6.398;2022-08-16T09:50:12;25.60;99.90
54898;DHT22;40800;52.704;6.398;2022-08-16T09:52:38;25.70;99.90
54898;DHT22;40800;52.704;6.398;2022-08-16T09:55:04;25.90;99.90
54898;DHT22;40800;52.704;6.398;2022-08-16T09:57:30;26.10;99.90
54898;DHT22;40800;52.704;6.398;2022-08-16T09:59:56;26.10;99.90
54898;DHT22;40800;52.704;6.398;2022-08-16T10:02:21;26.20;99.90
54898;DHT22;40800;52.704;6.398;2022-08-16T10:04:48;26.00;99.90
54898;DHT22;40800;52.704;6.398;2022-08-16T10:07:14;26.10;99.90
54898;DHT22;40800;52.704;6.398;2022-08-16T10:09:39;26.20;99.90
54898;DHT22;40800;52.704;6.398;2022-08-16T10:12:05;26.50;99.90
54898;DHT22;40800;52.704;6.398;2022-08-16T10:14:49;26.50;99.90
54898;DHT22;40800;52.704;6.398;2022-08-16T10:17:15;26.60;99.90
54898;DHT22;40800;52.704;6.398;2022-08-16T10:19:41;26.50;99.90
54898;DHT22;40800;52.704;6.398;2022-08-16T10:22:06;26.80;99.90
54898;DHT22;40800;52.704;6.398;2022-08-16T10:24:32;27.10;99.90
54898;DHT22;40800;52.704;6.398;2022-08-16T10:26:58;26.80;99.90
54898;DHT22;40800;52.704;6.398;2022-08-16T10:29:24;27.00;99.90
54898;DHT22;40800;52.704;6.398;2022-08-16T10:31:49;26.90;99.90
54898;DHT22;40800;52.704;6.398;2022-08-16T10:34:15;26.80;99.90
54898;DHT22;40800;52.704;6.398;2022-08-16T10:36:40;27.20;99.90
54898;DHT22;40800;52.704;6.398;2022-08-16T10:39:06;27.00;99.90
54898;DHT22;40800;52.704;6.398;2022-08-16T10:41:31;27.00;99.90
54898;DHT22;40800;52.704;6.398;2022-08-16T10:43:58;27.00;99.90
54898;DHT22;40800;52.704;6.398;2022-08-16T10:46:24;27.20;99.90
54898;DHT22;40800;52.704;6.398;2022-08-16T10:48:49;27.40;99.90
54898;DHT22;40800;52.704;6.398;2022-08-16T10:51:16;27.50;99.90
54898;DHT22;40800;52.704;6.398;2022-08-16T10:53:42;27.40;99.90
54898;DHT22;40800;52.704;6.398;2022-08-16T10:56:09;27.10;99.90
54898;DHT22;40800;52.704;6.398;2022-08-16T10:58:35;27.80;99.90
54898;DHT22;40800;52.704;6.398;2022-08-16T11:01:02;28.00;99.90
54898;DHT22;40800;52.704;6.398;2022-08-16T11:03:28;27.90;99.90
54898;DHT22;40800;52.704;6.398;2022-08-16T11:05:54;27.80;99.90
54898;DHT22;40800;52.704;6.398;2022-08-16T11:08:20;28.20;98.00
54898;DHT22;40800;52.704;6.398;2022-08-16T11:10:47;27.90;99.90
54898;DHT22;40800;52.704;6.398;2022-08-16T11:13:23;28.30;99.90
54898;DHT22;40800;52.704;6.398;2022-08-16T11:15:50;27.80;99.90
54898;DHT22;40800;52.704;6.398;2022-08-16T11:18:15;28.10;99.90
54898;DHT22;40800;52.704;6.398;2022-08-16T11:20:41;28.20;99.90
54898;DHT22;40800;52.704;6.398;2022-08-16T11:23:09;28.70;95.90
54898;DHT22;40800;52.704;6.398;2022-08-16T11:25:35;28.60;93.70
54898;DHT22;40800;52.704;6.398;2022-08-16T11:28:01;28.70;99.90
54898;DHT22;40800;52.704;6.398;2022-08-16T11:30:27;29.10;88.10
54898;DHT22;40800;52.704;6.398;2022-08-16T11:32:54;29.10;83.10
54898;DHT22;40800;52.704;6.398;2022-08-16T11:35:20;28.70;82.10
54898;DHT22;40800;52.704;6.398;2022-08-16T11:37:52;29.00;71.10
54898;DHT22;40800;52.704;6.398;2022-08-16T11:40:20;28.60;93.70
54898;DHT22;40800;52.704;6.398;2022-08-16T11:42:45;28.30;99.00
54898;DHT22;40800;52.704;6.398;2022-08-16T11:45:11;28.70;78.10
54898;DHT22;40800;52.704;6.398;2022-08-16T11:47:37;28.30;87.10
54898;DHT22;40800;52.704;6.398;2022-08-16T11:50:03;28.60;92.20
54898;DHT22;40800;52.704;6.398;2022-08-16T11:52:31;28.40;89.20
54898;DHT22;40800;52.704;6.398;2022-08-16T11:54:57;28.80;90.70
54898;DHT22;40800;52.704;6.398;2022-08-16T11:57:22;29.50;62.40
54898;DHT22;40800;52.704;6.398;2022-08-16T11:59:48;30.00;33.40
54898;DHT22;40800;52.704;6.398;2022-08-16T12:02:13;30.40;20.90
54898;DHT22;40800;52.704;6.398;2022-08-16T12:04:39;30.20;44.90
54898;DHT22;40800;52.704;6.398;2022-08-16T12:07:05;30.20;31.40
54898;DHT22;40800;52.704;6.398;2022-08-16T12:09:32;31.20;79.40
54898;DHT22;40800;52.704;6.398;2022-08-16T12:11:58;31.60;1.00
54898;DHT22;40800;52.704;6.398;2022-08-16T12:14:23;30.00;1.00
54898;DHT22;40800;52.704;6.398;2022-08-16T12:16:49;30.00;1.00
54898;DHT22;40800;52.704;6.398;2022-08-16T12:19:15;29.60;1.00
54898;DHT22;40800;52.704;6.398;2022-08-16T12:21:41;30.00;1.00
54898;DHT22;40800;52.704;6.398;2022-08-16T12:24:07;29.60;1.00
54898;DHT22;40800;52.704;6.398;2022-08-16T12:26:33;29.70;4.60
54898;DHT22;40800;52.704;6.398;2022-08-16T12:28:58;30.70;1.00
54898;DHT22;40800;52.704;6.398;2022-08-16T12:31:25;31.10;1.00
54898;DHT22;40800;52.704;6.398;2022-08-16T12:33:51;31.10;1.00
54898;DHT22;40800;52.704;6.398;2022-08-16T12:36:17;30.40;1.00
54898;DHT22;40800;52.704;6.398;2022-08-16T12:38:43;30.90;1.00
54898;DHT22;40800;52.704;6.398;2022-08-16T12:41:08;31.40;1.00
54898;DHT22;40800;52.704;6.398;2022-08-16T12:43:34;29.50;1.00
54898;DHT22;40800;52.704;6.398;2022-08-16T12:46:00;30.10;1.00
54898;DHT22;40800;52.704;6.398;2022-08-16T12:48:27;31.00;1.00
54898;DHT22;40800;52.704;6.398;2022-08-16T12:51:13;31.10;1.00
54898;DHT22;40800;52.704;6.398;2022-08-16T12:53:39;31.40;1.00
54898;DHT22;40800;52.704;6.398;2022-08-16T12:56:05;31.20;1.00
54898;DHT22;40800;52.704;6.398;2022-08-16T12:58:31;30.10;1.00
54898;DHT22;40800;52.704;6.398;2022-08-16T13:00:57;30.70;1.00
54898;DHT22;40800;52.704;6.398;2022-08-16T13:03:22;30.70;1.00
54898;DHT22;40800;52.704;6.398;2022-08-16T13:05:48;30.80;1.00
54898;DHT22;40800;52.704;6.398;2022-08-16T13:08:16;31.50;1.00
54898;DHT22;40800;52.704;6.398;2022-08-16T13:10:43;31.30;1.00
54898;DHT22;40800;52.704;6.398;2022-08-16T13:13:11;30.80;1.00
54898;DHT22;40800;52.704;6.398;2022-08-16T13:15:38;31.00;1.00
54898;DHT22;40800;52.704;6.398;2022-08-16T13:18:04;31.00;1.00
54898;DHT22;40800;52.704;6.398;2022-08-16T13:20:29;30.40;1.00
54898;DHT22;40800;52.704;6.398;2022-08-16T13:23:06;30.10;1.00
54898;DHT22;40800;52.704;6.398;2022-08-16T13:25:32;30.10;1.00
54898;DHT22;40800;52.704;6.398;2022-08-16T13:27:58;30.60;1.00
54898;DHT22;40800;52.704;6.398;2022-08-16T13:30:24;30.40;1.00
54898;DHT22;40800;52.704;6.398;2022-08-16T13:32:52;31.10;1.00
54898;DHT22;40800;52.704;6.398;2022-08-16T13:35:17;31.00;1.00
54898;DHT22;40800;52.704;6.398;2022-08-16T13:37:43;31.10;1.00
54898;DHT22;40800;52.704;6.398;2022-08-16T13:40:09;31.00;1.00
54898;DHT22;40800;52.704;6.398;2022-08-16T13:42:35;31.40;99.90
54898;DHT22;40800;52.704;6.398;2022-08-16T13:45:03;31.10;1.00
54898;DHT22;40800;52.704;6.398;2022-08-16T13:47:28;31.20;1.00
54898;DHT22;40800;52.704;6.398;2022-08-16T13:49:54;32.00;1.00
54898;DHT22;40800;52.704;6.398;2022-08-16T13:52:22;32.00;1.00
54898;DHT22;40800;52.704;6.398;2022-08-16T13:54:49;31.60;1.00
54898;DHT22;40800;52.704;6.398;2022-08-16T13:57:14;31.60;1.00
54898;DHT22;40800;52.704;6.398;2022-08-16T13:59:40;31.60;1.00
54898;DHT22;40800;52.704;6.398;2022-08-16T14:02:08;32.60;1.00
54898;DHT22;40800;52.704;6.398;2022-08-16T14:04:36;33.70;1.00
54898;DHT22;40800;52.704;6.398;2022-08-16T14:07:03;33.20;1.00
54898;DHT22;40800;52.704;6.398;2022-08-16T14:09:29;32.30;1.00
54898;DHT22;40800;52.704;6.398;2022-08-16T14:11:58;32.20;1.00
54898;DHT22;40800;52.704;6.398;2022-08-16T14:14:25;31.60;1.00
54898;DHT22;40800;52.704;6.398;2022-08-16T14:16:51;30.20;1.00
54898;DHT22;40800;52.704;6.398;2022-08-16T14:19:17;29.70;2.50
54898;DHT22;40800;52.704;6.398;2022-08-16T14:21:46;29.90;10.60
54898;DHT22;40800;52.704;6.398;2022-08-16T14:24:12;29.90;17.60
54898;DHT22;40800;52.704;6.398;2022-08-16T14:26:41;28.80;56.30
54898;DHT22;40800;52.704;6.398;2022-08-16T14:29:07;29.10;27.70
54898;DHT22;40800;52.704;6.398;2022-08-16T14:31:33;28.10;68.60
54898;DHT22;40800;52.704;6.398;2022-08-16T14:33:58;28.10;68.60
54898;DHT22;40800;52.704;6.398;2022-08-16T14:36:24;27.80;82.30
54898;DHT22;40800;52.704;6.398;2022-08-16T14:38:49;27.70;88.80
54898;DHT22;40800;52.704;6.398;2022-08-16T14:41:15;27.50;84.00
54898;DHT22;40800;52.704;6.398;2022-08-16T14:43:41;27.60;87.10
54898;DHT22;40800;52.704;6.398;2022-08-16T14:46:06;27.50;95.60
54898;DHT22;40800;52.704;6.398;2022-08-16T14:48:32;27.80;94.30
54898;DHT22;40800;52.704;6.398;2022-08-16T14:50:57;27.70;96.30
54898;DHT22;40800;52.704;6.398;2022-08-16T14:53:23;27.90;95.40
54898;DHT22;40800;52.704;6.398;2022-08-16T14:55:50;27.80;95.00
54898;DHT22;40800;52.704;6.398;2022-08-16T14:58:15;27.60;96.10
54898;DHT22;40800;52.704;6.398;2022-08-16T15:00:41;27.60;95.70
54898;DHT22;40800;52.704;6.398;2022-08-16T15:03:07;27.50;98.90
54898;DHT22;40800;52.704;6.398;2022-08-16T15:05:35;27.50;95.60
54898;DHT22;40800;52.704;6.398;2022-08-16T15:08:00;27.60;95.80
54898;DHT22;40800;52.704;6.398;2022-08-16T15:10:26;27.80;95.60
54898;DHT22;40800;52.704;6.398;2022-08-16T15:12:52;27.70;95.00
54898;DHT22;40800;52.704;6.398;2022-08-16T15:15:20;28.00;96.30
54898;DHT22;40800;52.704;6.398;2022-08-16T15:17:46;28.30;94.10
54898;DHT22;40800;52.704;6.398;2022-08-16T15:20:12;28.70;94.30
54898;DHT22;40800;52.704;6.398;2022-08-16T15:22:39;29.70;94.40
54898;DHT22;40800;52.704;6.398;2022-08-16T15:25:16;30.70;93.50
54898;DHT22;40800;52.704;6.398;2022-08-16T15:27:42;31.60;77.60